createdAt,value
2023-09-26T00:02:26.533Z,8.67
2023-09-26T00:04:53.140Z,8.63
2023-09-26T00:07:19.764Z,8.58
2023-09-26T00:09:46.646Z,8.46
2023-09-26T00:12:13.202Z,8.45
2023-09-26T00:14:39.785Z,8.53
2023-09-26T00:17:06.557Z,8.53
2023-09-26T00:19:33.212Z,8.63
2023-09-26T00:21:59.761Z,8.63
2023-09-26T00:24:26.382Z,8.63
2023-09-26T00:26:52.896Z,8.68
2023-09-26T00:29:19.552Z,8.69
2023-09-26T00:31:46.122Z,8.77
2023-09-26T00:34:13.529Z,8.79
2023-09-26T00:36:40.145Z,8.69
2023-09-26T00:39:06.984Z,8.69
2023-09-26T00:41:34.502Z,8.62
2023-09-26T00:44:01.180Z,8.53
2023-09-26T00:46:29.476Z,8.56
2023-09-26T00:48:57.051Z,8.54
2023-09-26T00:51:23.556Z,8.55
2023-09-26T00:53:50.447Z,8.61
2023-09-26T00:56:17.426Z,8.68
2023-09-26T00:58:44.822Z,8.79
2023-09-26T01:01:11.842Z,8.97
2023-09-26T01:03:39.298Z,8.93
2023-09-26T01:06:06.419Z,8.90
2023-09-26T01:08:33.347Z,8.86
2023-09-26T01:10:59.951Z,8.84
2023-09-26T01:13:26.532Z,8.82
2023-09-26T01:15:53.459Z,8.84
2023-09-26T01:18:24.328Z,8.83
2023-09-26T01:20:51.986Z,8.70
2023-09-26T01:23:24.055Z,8.56
2023-09-26T01:25:50.685Z,8.49
2023-09-26T01:28:18.232Z,8.49
2023-09-26T01:30:44.863Z,8.52
2023-09-26T01:33:13.998Z,8.45
2023-09-26T01:35:40.548Z,8.42
2023-09-26T01:38:07.182Z,8.44
2023-09-26T01:40:33.753Z,8.31
2023-09-26T01:43:00.301Z,8.28
2023-09-26T01:45:26.854Z,8.38
2023-09-26T01:47:53.498Z,8.26
2023-09-26T01:50:21.973Z,8.36
2023-09-26T01:52:49.245Z,8.50
2023-09-26T01:55:21.171Z,8.68
2023-09-26T01:57:48.978Z,8.79
2023-09-26T02:00:16.300Z,8.68
2023-09-26T02:02:45.524Z,8.63
2023-09-26T02:05:14.395Z,8.69
2023-09-26T02:07:41.014Z,8.90
2023-09-26T02:10:08.869Z,9.02
2023-09-26T02:12:37.394Z,9.07
2023-09-26T02:15:06.613Z,8.99
2023-09-26T02:17:36.846Z,9.01
2023-09-26T02:20:07.100Z,8.90
2023-09-26T02:22:35.977Z,8.92
2023-09-26T02:25:02.501Z,8.92
2023-09-26T02:27:29.150Z,8.90
2023-09-26T02:29:55.733Z,8.91
2023-09-26T02:32:22.646Z,8.98
2023-09-26T02:34:49.103Z,9.01
2023-09-26T02:37:15.648Z,9.06
2023-09-26T02:39:42.337Z,9.16
2023-09-26T02:42:08.761Z,9.10
2023-09-26T02:44:36.276Z,9.09
2023-09-26T02:47:02.761Z,9.06
2023-09-26T02:49:29.436Z,8.97
2023-09-26T02:51:56.029Z,8.82
2023-09-26T02:54:22.589Z,8.74
2023-09-26T02:56:49.300Z,8.67
2023-09-26T02:59:15.729Z,8.55
2023-09-26T03:01:42.286Z,8.49
2023-09-26T03:04:08.924Z,8.48
2023-09-26T03:06:35.853Z,8.58
2023-09-26T03:09:02.358Z,8.59
2023-09-26T03:11:30.602Z,8.54
2023-09-26T03:13:57.173Z,8.59
2023-09-26T03:16:23.949Z,8.58
2023-09-26T03:18:55.032Z,8.45
2023-09-26T03:21:22.440Z,8.34
2023-09-26T03:23:50.142Z,8.31
2023-09-26T03:26:16.779Z,8.39
2023-09-26T03:28:43.369Z,8.45
2023-09-26T03:31:10.245Z,8.55
2023-09-26T03:33:37.070Z,8.68
2023-09-26T03:36:04.610Z,8.77
2023-09-26T03:38:31.940Z,8.75
2023-09-26T03:40:59.750Z,8.76
2023-09-26T03:43:30.115Z,8.75
2023-09-26T03:46:04.349Z,8.75
2023-09-26T03:48:32.074Z,8.76
2023-09-26T03:51:12.079Z,8.78
2023-09-26T03:53:40.013Z,8.67
2023-09-26T03:56:06.961Z,8.76
2023-09-26T03:58:34.073Z,8.62
2023-09-26T04:01:14.635Z,8.57
2023-09-26T04:03:43.760Z,8.60
2023-09-26T04:06:10.782Z,8.52
2023-09-26T04:08:37.322Z,8.64
2023-09-26T04:11:03.986Z,8.73
2023-09-26T04:13:30.586Z,8.76
2023-09-26T04:16:00.011Z,8.82
2023-09-26T04:18:26.972Z,8.70
2023-09-26T04:20:53.548Z,8.62
2023-09-26T04:23:20.037Z,8.56
2023-09-26T04:25:46.678Z,8.55
2023-09-26T04:28:13.439Z,8.52
2023-09-26T04:30:40.783Z,8.50
2023-09-26T04:33:09.483Z,8.42
2023-09-26T04:35:37.350Z,8.44
2023-09-26T04:38:05.251Z,8.32
2023-09-26T04:40:32.202Z,8.27
2023-09-26T04:43:06.507Z,8.26
2023-09-26T04:45:33.778Z,8.29
2023-09-26T04:48:01.761Z,8.24
2023-09-26T04:50:29.751Z,7.99
2023-09-26T04:52:57.561Z,7.93
2023-09-26T04:55:24.481Z,8.18
2023-09-26T04:57:51.095Z,8.42
2023-09-26T05:00:18.681Z,8.49
2023-09-26T05:02:46.763Z,8.32
2023-09-26T05:05:13.828Z,8.17
2023-09-26T05:07:44.183Z,8.08
2023-09-26T05:10:12.993Z,7.93
2023-09-26T05:12:41.832Z,7.95
2023-09-26T05:15:16.311Z,7.96
2023-09-26T05:17:46.766Z,8.03
2023-09-26T05:20:13.467Z,8.14
2023-09-26T05:22:42.885Z,8.17
2023-09-26T05:25:09.997Z,8.23
2023-09-26T05:27:38.380Z,8.24
2023-09-26T05:30:07.005Z,8.26
2023-09-26T05:32:33.743Z,8.21
2023-09-26T05:35:00.470Z,8.24
2023-09-26T05:37:27.433Z,8.26
2023-09-26T05:39:54.195Z,8.23
2023-09-26T05:42:20.731Z,8.31
2023-09-26T05:44:47.235Z,8.39
2023-09-26T05:47:13.874Z,8.42
2023-09-26T05:49:40.539Z,8.45
2023-09-26T05:52:07.137Z,8.38
2023-09-26T05:54:34.503Z,8.25
2023-09-26T05:57:04.206Z,8.41
2023-09-26T05:59:30.981Z,8.43
2023-09-26T06:01:57.582Z,8.32
2023-09-26T06:04:24.338Z,8.24
2023-09-26T06:06:51.058Z,8.29
2023-09-26T06:09:17.520Z,8.35
2023-09-26T06:11:44.204Z,8.52
2023-09-26T06:14:10.693Z,8.58
2023-09-26T06:16:37.224Z,8.65
2023-09-26T06:19:03.917Z,8.71
2023-09-26T06:21:30.470Z,8.78
2023-09-26T06:23:57.094Z,8.91
2023-09-26T06:26:24.229Z,9.07
2023-09-26T06:28:50.819Z,9.15
2023-09-26T06:31:17.651Z,9.18
2023-09-26T06:33:44.436Z,9.29
2023-09-26T06:36:12.851Z,9.35
2023-09-26T06:38:39.376Z,9.48
2023-09-26T06:41:07.692Z,9.61
2023-09-26T06:43:34.514Z,9.73
2023-09-26T06:46:09.340Z,9.89
2023-09-26T06:48:39.207Z,10.09
2023-09-26T06:51:06.618Z,10.24
2023-09-26T06:53:34.679Z,10.42
2023-09-26T06:56:10.229Z,10.56
2023-09-26T06:58:38.085Z,10.68
2023-09-26T07:01:12.844Z,10.82
2023-09-26T07:03:39.394Z,10.97
2023-09-26T07:06:11.130Z,11.10
2023-09-26T07:08:43.089Z,11.16
2023-09-26T07:11:10.417Z,11.29
2023-09-26T07:13:48.737Z,11.41
2023-09-26T07:16:16.568Z,11.57
2023-09-26T07:18:43.137Z,11.66
2023-09-26T07:21:10.723Z,11.74
2023-09-26T07:23:38.195Z,11.82
2023-09-26T07:26:18.512Z,11.91
2023-09-26T07:28:45.866Z,11.97
2023-09-26T07:31:13.951Z,12.08
2023-09-26T07:33:40.932Z,12.27
2023-09-26T07:36:08.338Z,12.52
2023-09-26T07:38:35.241Z,12.64
2023-09-26T07:41:02.425Z,12.75
2023-09-26T07:43:34.158Z,12.86
2023-09-26T07:46:08.681Z,12.98
2023-09-26T07:48:36.209Z,13.08
2023-09-26T07:51:03.652Z,13.15
2023-09-26T07:53:30.328Z,13.25
2023-09-26T07:55:57.590Z,13.32
2023-09-26T07:58:24.837Z,13.48
2023-09-26T08:00:53.495Z,13.59
2023-09-26T08:03:20.125Z,13.73
2023-09-26T08:05:46.669Z,13.84
2023-09-26T08:08:13.382Z,14.04
2023-09-26T08:10:40.126Z,14.12
2023-09-26T08:13:07.756Z,14.20
2023-09-26T08:15:37.709Z,14.26
2023-09-26T08:18:05.024Z,14.33
2023-09-26T08:20:32.342Z,14.39
2023-09-26T08:22:58.907Z,14.48
2023-09-26T08:25:26.534Z,14.60
2023-09-26T08:27:53.185Z,14.73
2023-09-26T08:30:19.819Z,14.83
2023-09-26T08:32:46.341Z,14.98
2023-09-26T08:35:12.899Z,15.14
2023-09-26T08:37:41.573Z,15.22
2023-09-26T08:40:12.675Z,15.40
2023-09-26T08:42:43.753Z,15.46
2023-09-26T08:45:11.094Z,15.52
2023-09-26T08:47:41.056Z,15.59
2023-09-26T08:50:08.296Z,15.70
2023-09-26T08:52:35.374Z,15.77
2023-09-26T08:55:03.063Z,15.83
2023-09-26T08:57:30.922Z,16.24
2023-09-26T09:00:01.854Z,16.29
2023-09-26T09:02:29.960Z,16.34
2023-09-26T09:04:56.515Z,16.38
2023-09-26T09:07:23.529Z,16.38
2023-09-26T09:10:05.747Z,16.48
2023-09-26T09:12:32.422Z,16.60
2023-09-26T09:14:58.903Z,16.65
2023-09-26T09:17:25.576Z,16.68
2023-09-26T09:19:53.787Z,16.76
2023-09-26T09:22:22.990Z,16.83
2023-09-26T09:24:57.819Z,16.88
2023-09-26T09:27:35.915Z,16.98
2023-09-26T09:30:07.141Z,17.04
2023-09-26T09:32:33.776Z,17.09
2023-09-26T09:35:00.442Z,17.19
2023-09-26T09:37:27.860Z,17.27
2023-09-26T09:39:54.812Z,17.52
2023-09-26T09:42:23.444Z,17.48
2023-09-26T09:44:50.196Z,17.55
2023-09-26T09:47:22.927Z,17.66
2023-09-26T09:49:50.452Z,17.75
2023-09-26T09:52:20.089Z,17.90
2023-09-26T09:54:47.966Z,18.03
2023-09-26T09:57:16.551Z,18.16
2023-09-26T09:59:45.225Z,18.17
2023-09-26T10:02:16.700Z,18.26
2023-09-26T10:04:56.776Z,18.27
2023-09-26T10:07:28.789Z,18.32
2023-09-26T10:09:55.915Z,18.33
2023-09-26T10:12:24.287Z,18.57
2023-09-26T10:14:50.913Z,18.57
2023-09-26T10:17:18.690Z,18.70
2023-09-26T10:19:55.843Z,18.77
2023-09-26T10:22:35.668Z,18.82
2023-09-26T10:25:03.591Z,18.81
2023-09-26T10:27:43.396Z,18.81
2023-09-26T10:30:19.744Z,18.86
2023-09-26T10:32:47.257Z,18.77
2023-09-26T10:35:17.528Z,18.82
2023-09-26T10:37:53.596Z,18.80
2023-09-26T10:40:20.265Z,18.83
2023-09-26T10:45:17.929Z,18.89
2023-09-26T10:47:54.530Z,18.96
2023-09-26T10:50:33.465Z,19.16
2023-09-26T10:53:00.660Z,19.23
2023-09-26T10:55:27.243Z,19.23
2023-09-26T10:57:53.829Z,19.41
2023-09-26T11:00:20.773Z,19.52
2023-09-26T11:02:49.100Z,19.59
2023-09-26T11:05:16.949Z,19.51
2023-09-26T11:07:48.280Z,19.47
2023-09-26T11:10:16.108Z,19.52
2023-09-26T11:12:44.618Z,19.60
2023-09-26T11:15:11.392Z,19.56
2023-09-26T11:17:38.738Z,19.67
2023-09-26T11:20:07.131Z,19.70
2023-09-26T11:22:47.773Z,19.76
2023-09-26T11:25:15.019Z,19.91
2023-09-26T11:27:49.173Z,20.26
2023-09-26T11:30:21.574Z,20.30
2023-09-26T11:32:51.686Z,20.24
2023-09-26T11:35:19.686Z,20.16
2023-09-26T11:37:53.856Z,20.18
2023-09-26T11:40:27.957Z,20.13
2023-09-26T11:42:58.758Z,20.23
2023-09-26T11:45:27.536Z,20.27
2023-09-26T11:47:55.384Z,20.31
2023-09-26T11:50:24.146Z,20.46
2023-09-26T11:52:51.865Z,20.47
2023-09-26T11:55:19.184Z,20.39
2023-09-26T11:57:46.700Z,20.50
2023-09-26T12:00:17.107Z,20.54
2023-09-26T12:02:45.293Z,20.72
2023-09-26T12:05:12.844Z,20.78
2023-09-26T12:07:42.719Z,20.84
2023-09-26T12:10:10.564Z,20.88
2023-09-26T12:12:38.445Z,20.89
2023-09-26T12:15:28.688Z,21.02
2023-09-26T12:17:57.677Z,21.16
2023-09-26T12:20:25.949Z,21.28
2023-09-26T12:22:54.479Z,21.39
2023-09-26T12:25:25.801Z,21.49
2023-09-26T12:27:53.388Z,21.52
2023-09-26T12:30:21.048Z,21.48
2023-09-26T12:32:48.626Z,21.54
2023-09-26T12:35:15.303Z,21.55
2023-09-26T12:37:44.637Z,21.53
2023-09-26T12:40:15.920Z,21.57
2023-09-26T12:42:42.957Z,21.68
2023-09-26T12:45:10.405Z,21.91
2023-09-26T12:47:37.370Z,21.98
2023-09-26T12:50:08.662Z,22.09
2023-09-26T12:52:36.355Z,22.19
2023-09-26T12:55:04.612Z,22.24
2023-09-26T12:57:34.609Z,22.28
2023-09-26T13:00:02.083Z,22.41
2023-09-26T13:02:28.976Z,22.43
2023-09-26T13:04:56.863Z,22.45
2023-09-26T13:07:23.544Z,22.52
2023-09-26T13:09:51.565Z,22.55
2023-09-26T13:12:18.384Z,22.64
2023-09-26T13:14:44.957Z,22.77
2023-09-26T13:17:14.758Z,22.80
2023-09-26T13:19:42.287Z,22.79
2023-09-26T13:22:10.405Z,22.82
2023-09-26T13:24:37.068Z,22.89
2023-09-26T13:27:06.983Z,22.99
2023-09-26T13:29:34.393Z,23.12
2023-09-26T13:32:02.283Z,23.56
2023-09-26T13:34:30.549Z,24.41
2023-09-26T13:36:57.095Z,25.17
2023-09-26T13:39:23.717Z,26.00
2023-09-26T13:41:50.356Z,26.62
2023-09-26T13:44:16.937Z,26.65
2023-09-26T13:46:43.837Z,27.27
2023-09-26T13:49:10.618Z,27.70
2023-09-26T13:51:37.098Z,28.20
2023-09-26T13:54:04.182Z,28.44
2023-09-26T13:56:30.625Z,28.55
2023-09-26T13:58:57.214Z,27.64
2023-09-26T14:01:24.177Z,27.97
2023-09-26T14:03:50.855Z,28.48
2023-09-26T14:06:17.420Z,28.39
2023-09-26T14:08:44.708Z,28.22
2023-09-26T14:11:14.356Z,28.68
2023-09-26T14:13:41.232Z,27.96
2023-09-26T14:16:07.993Z,28.78
2023-09-26T14:18:36.355Z,28.53
2023-09-26T14:21:04.614Z,28.89
2023-09-26T14:23:31.030Z,29.16
2023-09-26T14:25:59.394Z,29.54
2023-09-26T14:28:26.347Z,28.95
2023-09-26T14:30:54.602Z,28.59
2023-09-26T14:33:21.682Z,28.78
2023-09-26T14:35:48.676Z,29.32
2023-09-26T14:38:15.313Z,29.34
2023-09-26T14:40:41.899Z,28.93
2023-09-26T14:43:08.813Z,28.42
2023-09-26T14:45:39.672Z,27.89
2023-09-26T14:48:10.156Z,28.31
2023-09-26T14:50:36.797Z,28.43
2023-09-26T14:53:03.468Z,28.16
2023-09-26T14:55:30.185Z,28.25
2023-09-26T14:57:56.909Z,29.11
2023-09-26T15:00:23.505Z,29.20
2023-09-26T15:02:50.240Z,29.83
2023-09-26T15:05:17.185Z,29.28
2023-09-26T15:07:43.768Z,28.83
2023-09-26T15:10:11.119Z,28.96
2023-09-26T15:12:38.770Z,28.98
2023-09-26T15:15:06.125Z,28.24
2023-09-26T15:17:32.759Z,28.33
2023-09-26T15:20:00.046Z,28.55
2023-09-26T15:22:26.557Z,28.99
2023-09-26T15:24:53.062Z,28.80
2023-09-26T15:27:19.501Z,28.91
2023-09-26T15:29:46.054Z,28.94
2023-09-26T15:32:12.687Z,28.58
2023-09-26T15:34:39.292Z,28.58
2023-09-26T15:37:05.939Z,28.03
2023-09-26T15:39:33.028Z,27.64
2023-09-26T15:41:59.769Z,28.01
2023-09-26T15:44:26.366Z,27.54
2023-09-26T15:46:53.750Z,26.88
2023-09-26T15:49:20.602Z,26.35
2023-09-26T15:51:47.113Z,26.20
2023-09-26T15:54:13.557Z,25.82
2023-09-26T15:56:40.151Z,25.21
2023-09-26T15:59:07.423Z,24.46
2023-09-26T16:01:34.368Z,23.77
2023-09-26T16:04:01.077Z,23.69
2023-09-26T16:06:29.203Z,23.45
2023-09-26T16:08:57.572Z,23.26
2023-09-26T16:11:24.446Z,23.04
2023-09-26T16:13:51.308Z,22.78
2023-09-26T16:16:17.835Z,22.50
2023-09-26T16:18:44.397Z,22.44
2023-09-26T16:21:11.136Z,22.11
2023-09-26T16:23:37.786Z,21.95
2023-09-26T16:26:04.530Z,21.79
2023-09-26T16:28:31.917Z,21.75
2023-09-26T16:30:58.391Z,21.75
2023-09-26T16:33:24.909Z,21.80
2023-09-26T16:35:51.477Z,21.35
2023-09-26T16:38:18.023Z,20.48
2023-09-26T16:40:44.677Z,20.15
2023-09-26T16:43:12.084Z,19.86
2023-09-26T16:45:38.633Z,19.39
2023-09-26T16:48:07.077Z,19.01
2023-09-26T16:50:35.045Z,18.70
2023-09-26T16:53:01.828Z,18.42
2023-09-26T16:55:28.421Z,18.36
2023-09-26T16:57:54.939Z,18.12
2023-09-26T17:00:23.627Z,17.94
2023-09-26T17:02:50.343Z,17.71
2023-09-26T17:05:18.793Z,17.58
2023-09-26T17:07:45.563Z,17.45
2023-09-26T17:10:12.578Z,17.23
2023-09-26T17:12:39.019Z,17.01
2023-09-26T17:15:06.021Z,16.77
2023-09-26T17:17:32.707Z,16.56
2023-09-26T17:20:05.239Z,16.41
2023-09-26T17:22:33.366Z,16.22
2023-09-26T17:24:59.938Z,16.10
2023-09-26T17:27:26.447Z,16.04
2023-09-26T17:29:53.129Z,16.01
2023-09-26T17:32:19.652Z,15.90
2023-09-26T17:34:46.661Z,15.85
2023-09-26T17:37:13.125Z,15.66
2023-09-26T17:39:39.975Z,15.57
2023-09-26T17:42:06.497Z,15.53
2023-09-26T17:44:33.013Z,15.47
2023-09-26T17:46:59.813Z,15.40
2023-09-26T17:49:26.362Z,15.15
2023-09-26T17:51:53.281Z,14.92
2023-09-26T17:54:19.932Z,14.90
2023-09-26T17:56:46.548Z,14.83
2023-09-26T17:59:13.146Z,14.96
2023-09-26T18:01:40.067Z,14.83
2023-09-26T18:04:07.063Z,14.74
2023-09-26T18:06:33.553Z,14.81
2023-09-26T18:09:00.050Z,14.79
2023-09-26T18:11:26.520Z,14.99
2023-09-26T18:13:53.057Z,15.06
2023-09-26T18:16:19.682Z,14.92
2023-09-26T18:18:46.252Z,15.07
2023-09-26T18:21:12.693Z,15.14
2023-09-26T18:23:39.291Z,15.04
2023-09-26T18:26:07.569Z,15.02
2023-09-26T18:28:35.327Z,15.01
2023-09-26T18:31:02.054Z,14.89
2023-09-26T18:33:28.576Z,14.64
2023-09-26T18:35:55.045Z,14.34
2023-09-26T18:38:21.519Z,14.22
2023-09-26T18:40:48.845Z,14.25
2023-09-26T18:43:15.308Z,14.07
2023-09-26T18:45:43.115Z,13.90
2023-09-26T18:48:09.946Z,13.83
2023-09-26T18:50:36.896Z,13.98
2023-09-26T18:53:03.684Z,14.08
2023-09-26T18:55:30.122Z,14.01
2023-09-26T18:57:56.757Z,13.96
2023-09-26T19:00:23.579Z,13.82
2023-09-26T19:02:50.908Z,13.63
2023-09-26T19:05:17.813Z,13.52
2023-09-26T19:07:44.642Z,13.45
2023-09-26T19:10:12.416Z,13.34
2023-09-26T19:12:39.043Z,13.33
2023-09-26T19:15:07.228Z,13.31
2023-09-26T19:17:33.731Z,13.32
2023-09-26T19:20:00.413Z,13.25
2023-09-26T19:22:26.883Z,13.12
2023-09-26T19:24:53.428Z,13.18
2023-09-26T19:27:19.943Z,13.20
2023-09-26T19:29:46.511Z,13.12
2023-09-26T19:32:13.058Z,13.05
2023-09-26T19:34:41.257Z,13.08
2023-09-26T19:37:08.223Z,13.03
2023-09-26T19:39:34.663Z,13.08
2023-09-26T19:42:01.160Z,12.93
2023-09-26T19:44:27.691Z,12.67
2023-09-26T19:46:54.320Z,12.64
2023-09-26T19:49:20.821Z,12.65
2023-09-26T19:51:47.354Z,12.64
2023-09-26T19:54:13.923Z,12.80
2023-09-26T19:56:40.431Z,12.86
2023-09-26T19:59:07.380Z,12.99
2023-09-26T20:01:35.369Z,13.04
2023-09-26T20:04:01.954Z,12.86
2023-09-26T20:06:28.437Z,12.96
2023-09-26T20:08:58.465Z,12.87
2023-09-26T20:11:25.276Z,12.82
2023-09-26T20:13:51.831Z,12.72
2023-09-26T20:16:18.428Z,12.57
2023-09-26T20:18:45.029Z,12.60
2023-09-26T20:21:12.145Z,12.58
2023-09-26T20:23:38.758Z,12.42
2023-09-26T20:26:05.356Z,12.39
2023-09-26T20:28:31.900Z,12.31
2023-09-26T20:30:58.592Z,12.31
2023-09-26T20:33:27.280Z,12.21
2023-09-26T20:36:00.819Z,12.25
2023-09-26T20:38:27.786Z,12.21
2023-09-26T20:41:05.045Z,12.19
2023-09-26T20:43:32.442Z,12.18
2023-09-26T20:45:59.743Z,12.13
2023-09-26T20:48:27.275Z,12.05
2023-09-26T20:50:54.387Z,12.15
2023-09-26T20:53:20.936Z,12.00
2023-09-26T20:55:48.926Z,11.97
2023-09-26T20:58:16.258Z,11.96
2023-09-26T21:00:42.784Z,11.81
2023-09-26T21:03:09.555Z,11.76
2023-09-26T21:05:37.991Z,11.74
2023-09-26T21:08:08.212Z,11.64
2023-09-26T21:10:34.828Z,11.69
2023-09-26T21:13:01.365Z,11.66
2023-09-26T21:15:27.881Z,11.58
2023-09-26T21:17:54.447Z,11.67
2023-09-26T21:20:21.333Z,11.62
2023-09-26T21:22:47.853Z,11.52
2023-09-26T21:25:14.521Z,11.51
2023-09-26T21:27:41.313Z,11.48
2023-09-26T21:30:08.529Z,11.39
2023-09-26T21:32:35.625Z,11.39
2023-09-26T21:35:02.345Z,11.36
2023-09-26T21:37:28.870Z,11.39
2023-09-26T21:39:55.809Z,11.44
2023-09-26T21:42:22.343Z,11.41
2023-09-26T21:44:48.853Z,11.36
2023-09-26T21:47:15.530Z,11.46
2023-09-26T21:49:42.087Z,11.42
2023-09-26T21:52:08.625Z,11.46
2023-09-26T21:54:35.346Z,11.47
2023-09-26T21:57:01.810Z,11.49
2023-09-26T21:59:29.408Z,11.44
2023-09-26T22:01:55.972Z,11.34
2023-09-26T22:04:22.547Z,11.30
2023-09-26T22:06:49.035Z,11.37
2023-09-26T22:09:15.643Z,11.28
2023-09-26T22:11:42.161Z,11.37
2023-09-26T22:14:10.553Z,11.40
2023-09-26T22:16:37.346Z,11.43
2023-09-26T22:19:04.142Z,11.44
2023-09-26T22:21:30.699Z,11.51
2023-09-26T22:23:57.134Z,11.50
2023-09-26T22:26:23.680Z,11.48
2023-09-26T22:28:50.318Z,11.53
2023-09-26T22:31:16.879Z,11.63
2023-09-26T22:33:43.920Z,11.58
2023-09-26T22:36:10.403Z,11.56
2023-09-26T22:38:37.070Z,11.59
2023-09-26T22:41:03.929Z,11.55
2023-09-26T22:43:30.530Z,11.49
2023-09-26T22:45:57.143Z,11.42
2023-09-26T22:48:23.700Z,11.30
2023-09-26T22:50:50.210Z,11.25
2023-09-26T22:53:16.752Z,11.21
2023-09-26T22:55:47.407Z,11.15
2023-09-26T22:58:13.943Z,11.20
2023-09-26T23:00:40.712Z,11.14
2023-09-26T23:03:07.919Z,11.17
2023-09-26T23:05:37.684Z,11.22
2023-09-26T23:08:08.437Z,11.32
2023-09-26T23:10:36.495Z,11.24
2023-09-26T23:13:03.361Z,11.15
2023-09-26T23:15:29.952Z,11.20
2023-09-26T23:17:56.565Z,11.30
2023-09-26T23:20:23.200Z,11.45
2023-09-26T23:22:49.748Z,11.37
2023-09-26T23:25:16.201Z,11.24
2023-09-26T23:27:44.330Z,11.05
2023-09-26T23:30:12.768Z,11.03
2023-09-26T23:32:42.220Z,10.86
2023-09-26T23:35:10.864Z,10.79
2023-09-26T23:37:39.070Z,10.73
2023-09-26T23:40:07.575Z,10.66
2023-09-26T23:42:35.447Z,10.49
2023-09-26T23:45:02.095Z,10.45
2023-09-26T23:47:28.684Z,10.38
2023-09-26T23:49:55.344Z,10.36
2023-09-26T23:52:24.498Z,10.38
2023-09-26T23:54:50.981Z,10.62
2023-09-26T23:57:17.587Z,10.73
2023-09-26T23:59:44.229Z,10.87
